Spickard, Missouri
Current Conditions -  °F | °C
As of 4:53 PM on Wednesday 22 Oct 2014 (Local Time) from KLWD Reporting Station
Light Rain Light Rain  
Wind Chill: 65°   Ceiling: 6000
Heat Index: 65°   Visibility: 10mi
Dew Point: 48°   Wind: 12mph
Humidity: 54%   Direction: 140°SE
Pressure: 30.11"   Gusts: NA
Location:  40.24°N, 93.59°W
Report Text: KLWD 222153Z AUTO 14010KT 10SM -RA FEW049 BKN060 BKN075 18/09 A3011 RMK AO2 RAE03B22 SLP198 P0000 T01830089
Loading
Personal Weather Stations






























Interactive Weather Map
Tropical Storm Tracking
New forecast layout! Learn more

10-Day Weather Forecast

Advertisements
Track Severe Weather on mobile